sensor_id;sensor_type;location;lat;lon;timestamp;P1;durP1;ratioP1;P2;durP2;ratioP2
64795;SDS011;51229;51.980;6.722;2023-04-25T00:00:20;5.32;;;2.00;;
64795;SDS011;51229;51.980;6.722;2023-04-25T00:02:46;3.97;;;1.85;;
64795;SDS011;51229;51.980;6.722;2023-04-25T00:05:12;4.50;;;1.80;;
64795;SDS011;51229;51.980;6.722;2023-04-25T00:07:40;5.28;;;2.38;;
64795;SDS011;51229;51.980;6.722;2023-04-25T00:10:07;5.65;;;2.15;;
64795;SDS011;51229;51.980;6.722;2023-04-25T00:12:34;5.47;;;2.10;;
64795;SDS011;51229;51.980;6.722;2023-04-25T00:15:00;5.68;;;2.10;;
64795;SDS011;51229;51.980;6.722;2023-04-25T00:17:26;6.03;;;2.03;;
64795;SDS011;51229;51.980;6.722;2023-04-25T00:19:52;4.75;;;2.15;;
64795;SDS011;51229;51.980;6.722;2023-04-25T00:22:18;6.72;;;2.13;;
64795;SDS011;51229;51.980;6.722;2023-04-25T00:24:44;6.10;;;2.30;;
64795;SDS011;51229;51.980;6.722;2023-04-25T00:27:10;4.93;;;2.20;;
64795;SDS011;51229;51.980;6.722;2023-04-25T00:29:36;8.23;;;2.30;;
64795;SDS011;51229;51.980;6.722;2023-04-25T00:32:01;6.35;;;2.38;;
64795;SDS011;51229;51.980;6.722;2023-04-25T00:34:27;9.98;;;2.72;;
64795;SDS011;51229;51.980;6.722;2023-04-25T00:36:53;8.18;;;2.90;;
64795;SDS011;51229;51.980;6.722;2023-04-25T00:39:19;9.13;;;2.17;;
64795;SDS011;51229;51.980;6.722;2023-04-25T00:41:44;12.02;;;3.35;;
64795;SDS011;51229;51.980;6.722;2023-04-25T00:44:10;9.73;;;2.72;;
64795;SDS011;51229;51.980;6.722;2023-04-25T00:46:38;9.82;;;2.70;;
64795;SDS011;51229;51.980;6.722;2023-04-25T00:49:04;5.40;;;2.20;;
64795;SDS011;51229;51.980;6.722;2023-04-25T00:51:30;7.88;;;2.47;;
64795;SDS011;51229;51.980;6.722;2023-04-25T00:53:57;8.90;;;2.30;;
64795;SDS011;51229;51.980;6.722;2023-04-25T00:56:23;10.00;;;2.92;;
64795;SDS011;51229;51.980;6.722;2023-04-25T00:58:50;9.82;;;3.28;;
64795;SDS011;51229;51.980;6.722;2023-04-25T01:01:20;9.52;;;3.05;;
64795;SDS011;51229;51.980;6.722;2023-04-25T01:03:46;10.23;;;2.83;;
64795;SDS011;51229;51.980;6.722;2023-04-25T01:06:12;8.95;;;2.80;;
64795;SDS011;51229;51.980;6.722;2023-04-25T01:08:38;14.45;;;3.83;;
64795;SDS011;51229;51.980;6.722;2023-04-25T01:11:04;15.57;;;3.45;;
64795;SDS011;51229;51.980;6.722;2023-04-25T01:13:31;12.32;;;3.17;;
64795;SDS011;51229;51.980;6.722;2023-04-25T01:15:58;12.52;;;2.97;;
64795;SDS011;51229;51.980;6.722;2023-04-25T01:18:24;11.95;;;2.88;;
64795;SDS011;51229;51.980;6.722;2023-04-25T01:20:50;12.77;;;3.17;;
64795;SDS011;51229;51.980;6.722;2023-04-25T01:23:18;14.20;;;3.90;;
64795;SDS011;51229;51.980;6.722;2023-04-25T01:25:45;10.38;;;3.00;;
64795;SDS011;51229;51.980;6.722;2023-04-25T01:28:11;12.35;;;3.17;;
64795;SDS011;51229;51.980;6.722;2023-04-25T01:30:37;10.88;;;3.55;;
64795;SDS011;51229;51.980;6.722;2023-04-25T01:33:04;13.10;;;3.53;;
64795;SDS011;51229;51.980;6.722;2023-04-25T01:35:30;13.57;;;2.80;;
64795;SDS011;51229;51.980;6.722;2023-04-25T01:37:56;15.43;;;3.72;;
64795;SDS011;51229;51.980;6.722;2023-04-25T01:40:22;11.13;;;3.17;;
64795;SDS011;51229;51.980;6.722;2023-04-25T01:42:49;11.10;;;3.20;;
64795;SDS011;51229;51.980;6.722;2023-04-25T01:45:17;9.95;;;2.78;;
64795;SDS011;51229;51.980;6.722;2023-04-25T01:47:43;10.27;;;2.80;;
64795;SDS011;51229;51.980;6.722;2023-04-25T01:50:15;10.55;;;3.00;;
64795;SDS011;51229;51.980;6.722;2023-04-25T01:52:44;14.10;;;4.00;;
64795;SDS011;51229;51.980;6.722;2023-04-25T01:55:10;13.60;;;3.03;;
64795;SDS011;51229;51.980;6.722;2023-04-25T01:57:40;11.27;;;3.35;;
64795;SDS011;51229;51.980;6.722;2023-04-25T02:00:06;9.50;;;2.70;;
64795;SDS011;51229;51.980;6.722;2023-04-25T02:05:15;12.85;;;3.28;;
64795;SDS011;51229;51.980;6.722;2023-04-25T02:07:42;12.32;;;2.92;;
64795;SDS011;51229;51.980;6.722;2023-04-25T02:10:08;7.95;;;2.97;;
64795;SDS011;51229;51.980;6.722;2023-04-25T02:15:21;13.15;;;3.17;;
64795;SDS011;51229;51.980;6.722;2023-04-25T02:17:50;10.88;;;3.05;;
64795;SDS011;51229;51.980;6.722;2023-04-25T02:20:18;9.85;;;2.80;;
64795;SDS011;51229;51.980;6.722;2023-04-25T02:22:46;14.32;;;3.42;;
64795;SDS011;51229;51.980;6.722;2023-04-25T02:25:12;12.25;;;2.97;;
64795;SDS011;51229;51.980;6.722;2023-04-25T02:27:38;11.43;;;2.80;;
64795;SDS011;51229;51.980;6.722;2023-04-25T02:30:04;11.90;;;2.67;;
64795;SDS011;51229;51.980;6.722;2023-04-25T02:32:32;9.85;;;2.80;;
64795;SDS011;51229;51.980;6.722;2023-04-25T02:34:59;7.70;;;2.42;;
64795;SDS011;51229;51.980;6.722;2023-04-25T02:37:36;14.98;;;3.50;;
64795;SDS011;51229;51.980;6.722;2023-04-25T02:40:03;11.18;;;2.40;;
64795;SDS011;51229;51.980;6.722;2023-04-25T02:42:30;9.27;;;2.60;;
64795;SDS011;51229;51.980;6.722;2023-04-25T02:44:56;12.25;;;2.85;;
64795;SDS011;51229;51.980;6.722;2023-04-25T02:47:22;8.43;;;2.70;;
64795;SDS011;51229;51.980;6.722;2023-04-25T02:49:48;11.15;;;2.75;;
64795;SDS011;51229;51.980;6.722;2023-04-25T02:52:14;9.75;;;2.55;;
64795;SDS011;51229;51.980;6.722;2023-04-25T02:54:41;8.98;;;2.60;;
64795;SDS011;51229;51.980;6.722;2023-04-25T02:57:07;7.93;;;2.78;;
64795;SDS011;51229;51.980;6.722;2023-04-25T02:59:35;9.07;;;2.45;;
64795;SDS011;51229;51.980;6.722;2023-04-25T03:02:01;8.52;;;2.70;;
64795;SDS011;51229;51.980;6.722;2023-04-25T03:04:27;9.50;;;2.88;;
64795;SDS011;51229;51.980;6.722;2023-04-25T03:06:53;10.85;;;2.83;;
64795;SDS011;51229;51.980;6.722;2023-04-25T03:09:20;9.75;;;3.38;;
64795;SDS011;51229;51.980;6.722;2023-04-25T03:11:46;9.50;;;2.42;;
64795;SDS011;51229;51.980;6.722;2023-04-25T03:14:12;6.10;;;2.60;;
64795;SDS011;51229;51.980;6.722;2023-04-25T03:16:38;11.23;;;2.47;;
64795;SDS011;51229;51.980;6.722;2023-04-25T03:19:04;10.43;;;2.80;;
64795;SDS011;51229;51.980;6.722;2023-04-25T03:21:31;8.70;;;2.30;;
64795;SDS011;51229;51.980;6.722;2023-04-25T03:23:58;8.23;;;3.08;;
64795;SDS011;51229;51.980;6.722;2023-04-25T03:26:25;8.88;;;2.67;;
64795;SDS011;51229;51.980;6.722;2023-04-25T03:28:51;9.27;;;2.72;;
64795;SDS011;51229;51.980;6.722;2023-04-25T03:31:16;10.90;;;3.05;;
64795;SDS011;51229;51.980;6.722;2023-04-25T03:33:42;10.25;;;2.90;;
64795;SDS011;51229;51.980;6.722;2023-04-25T03:36:08;9.40;;;3.10;;
64795;SDS011;51229;51.980;6.722;2023-04-25T03:38:35;6.72;;;2.53;;
64795;SDS011;51229;51.980;6.722;2023-04-25T03:41:01;9.32;;;3.08;;
64795;SDS011;51229;51.980;6.722;2023-04-25T03:43:50;7.80;;;2.75;;
64795;SDS011;51229;51.980;6.722;2023-04-25T03:46:16;9.50;;;2.78;;
64795;SDS011;51229;51.980;6.722;2023-04-25T03:48:42;7.93;;;2.70;;
64795;SDS011;51229;51.980;6.722;2023-04-25T03:51:10;9.63;;;2.90;;
64795;SDS011;51229;51.980;6.722;2023-04-25T03:53:40;11.77;;;2.95;;
64795;SDS011;51229;51.980;6.722;2023-04-25T03:56:14;8.90;;;2.75;;
64795;SDS011;51229;51.980;6.722;2023-04-25T03:58:40;11.88;;;3.10;;
64795;SDS011;51229;51.980;6.722;2023-04-25T04:01:06;10.38;;;2.67;;
64795;SDS011;51229;51.980;6.722;2023-04-25T04:03:35;13.57;;;3.70;;
64795;SDS011;51229;51.980;6.722;2023-04-25T04:06:04;7.55;;;2.80;;
64795;SDS011;51229;51.980;6.722;2023-04-25T04:08:34;10.15;;;3.10;;
64795;SDS011;51229;51.980;6.722;2023-04-25T04:11:00;11.68;;;3.28;;
64795;SDS011;51229;51.980;6.722;2023-04-25T04:13:26;10.60;;;3.00;;
64795;SDS011;51229;51.980;6.722;2023-04-25T04:15:52;11.40;;;3.28;;
64795;SDS011;51229;51.980;6.722;2023-04-25T04:18:18;11.88;;;2.92;;
64795;SDS011;51229;51.980;6.722;2023-04-25T04:20:44;13.68;;;3.47;;
64795;SDS011;51229;51.980;6.722;2023-04-25T04:23:10;12.63;;;3.42;;
64795;SDS011;51229;51.980;6.722;2023-04-25T04:25:36;8.38;;;2.88;;
64795;SDS011;51229;51.980;6.722;2023-04-25T04:28:20;11.95;;;4.18;;
64795;SDS011;51229;51.980;6.722;2023-04-25T04:30:56;8.32;;;3.15;;
64795;SDS011;51229;51.980;6.722;2023-04-25T04:33:23;9.00;;;3.28;;
64795;SDS011;51229;51.980;6.722;2023-04-25T04:35:55;9.88;;;2.80;;
64795;SDS011;51229;51.980;6.722;2023-04-25T04:38:21;7.63;;;2.65;;
64795;SDS011;51229;51.980;6.722;2023-04-25T04:40:47;10.45;;;2.95;;
64795;SDS011;51229;51.980;6.722;2023-04-25T04:46:15;8.80;;;2.88;;
64795;SDS011;51229;51.980;6.722;2023-04-25T04:49:20;12.25;;;2.88;;
64795;SDS011;51229;51.980;6.722;2023-04-25T04:52:12;13.05;;;3.30;;
64795;SDS011;51229;51.980;6.722;2023-04-25T04:54:56;13.35;;;3.17;;
64795;SDS011;51229;51.980;6.722;2023-04-25T04:57:54;11.40;;;3.40;;
64795;SDS011;51229;51.980;6.722;2023-04-25T05:00:39;12.38;;;3.38;;
64795;SDS011;51229;51.980;6.722;2023-04-25T05:03:23;11.60;;;3.10;;
64795;SDS011;51229;51.980;6.722;2023-04-25T05:06:01;13.63;;;3.03;;
64795;SDS011;51229;51.980;6.722;2023-04-25T05:08:39;10.48;;;3.08;;
64795;SDS011;51229;51.980;6.722;2023-04-25T05:11:23;14.82;;;3.60;;
64795;SDS011;51229;51.980;6.722;2023-04-25T05:14:04;7.93;;;3.05;;
64795;SDS011;51229;51.980;6.722;2023-04-25T05:16:49;11.32;;;2.90;;
64795;SDS011;51229;51.980;6.722;2023-04-25T05:19:30;13.68;;;3.03;;
64795;SDS011;51229;51.980;6.722;2023-04-25T05:22:15;14.23;;;3.53;;
64795;SDS011;51229;51.980;6.722;2023-04-25T05:25:09;12.82;;;3.75;;
64795;SDS011;51229;51.980;6.722;2023-04-25T05:28:04;7.97;;;2.70;;
64795;SDS011;51229;51.980;6.722;2023-04-25T05:30:56;8.27;;;2.40;;
64795;SDS011;51229;51.980;6.722;2023-04-25T05:33:45;9.60;;;2.70;;
64795;SDS011;51229;51.980;6.722;2023-04-25T05:36:11;10.82;;;3.20;;
64795;SDS011;51229;51.980;6.722;2023-04-25T05:38:37;9.07;;;3.33;;
64795;SDS011;51229;51.980;6.722;2023-04-25T05:41:05;11.98;;;3.20;;
64795;SDS011;51229;51.980;6.722;2023-04-25T05:43:43;8.27;;;2.95;;
64795;SDS011;51229;51.980;6.722;2023-04-25T05:46:21;16.98;;;3.20;;
64795;SDS011;51229;51.980;6.722;2023-04-25T05:49:02;12.55;;;3.05;;
64795;SDS011;51229;51.980;6.722;2023-04-25T05:51:46;8.90;;;3.10;;
64795;SDS011;51229;51.980;6.722;2023-04-25T05:54:30;9.60;;;3.25;;
64795;SDS011;51229;51.980;6.722;2023-04-25T05:56:56;7.50;;;2.75;;
64795;SDS011;51229;51.980;6.722;2023-04-25T05:59:22;7.85;;;2.58;;
64795;SDS011;51229;51.980;6.722;2023-04-25T06:01:48;7.00;;;2.60;;
64795;SDS011;51229;51.980;6.722;2023-04-25T06:04:14;10.43;;;2.80;;
64795;SDS011;51229;51.980;6.722;2023-04-25T06:06:40;8.05;;;2.88;;
64795;SDS011;51229;51.980;6.722;2023-04-25T06:09:05;7.00;;;2.40;;
64795;SDS011;51229;51.980;6.722;2023-04-25T06:11:31;8.98;;;2.38;;
64795;SDS011;51229;51.980;6.722;2023-04-25T06:13:57;8.38;;;2.17;;
64795;SDS011;51229;51.980;6.722;2023-04-25T06:16:23;9.52;;;2.63;;
64795;SDS011;51229;51.980;6.722;2023-04-25T06:18:50;5.90;;;2.40;;
64795;SDS011;51229;51.980;6.722;2023-04-25T06:21:16;9.00;;;2.30;;
64795;SDS011;51229;51.980;6.722;2023-04-25T06:23:42;10.10;;;2.40;;
64795;SDS011;51229;51.980;6.722;2023-04-25T06:26:11;6.53;;;2.22;;
64795;SDS011;51229;51.980;6.722;2023-04-25T06:28:39;5.10;;;1.65;;
64795;SDS011;51229;51.980;6.722;2023-04-25T06:31:04;6.55;;;2.28;;
64795;SDS011;51229;51.980;6.722;2023-04-25T06:33:32;7.72;;;2.28;;
64795;SDS011;51229;51.980;6.722;2023-04-25T06:35:58;8.88;;;2.55;;
64795;SDS011;51229;51.980;6.722;2023-04-25T06:38:30;7.57;;;2.22;;
64795;SDS011;51229;51.980;6.722;2023-04-25T06:40:56;7.30;;;2.33;;
64795;SDS011;51229;51.980;6.722;2023-04-25T06:43:22;8.60;;;2.40;;
64795;SDS011;51229;51.980;6.722;2023-04-25T06:46:09;9.70;;;2.30;;
64795;SDS011;51229;51.980;6.722;2023-04-25T06:48:41;10.90;;;2.70;;
64795;SDS011;51229;51.980;6.722;2023-04-25T06:51:07;7.88;;;2.28;;
64795;SDS011;51229;51.980;6.722;2023-04-25T06:53:34;7.22;;;2.30;;
64795;SDS011;51229;51.980;6.722;2023-04-25T06:56:03;6.93;;;2.42;;
64795;SDS011;51229;51.980;6.722;2023-04-25T06:58:49;6.40;;;2.13;;
64795;SDS011;51229;51.980;6.722;2023-04-25T07:01:29;7.38;;;2.03;;
64795;SDS011;51229;51.980;6.722;2023-04-25T07:03:56;6.45;;;1.85;;
64795;SDS011;51229;51.980;6.722;2023-04-25T07:06:24;7.75;;;2.08;;
64795;SDS011;51229;51.980;6.722;2023-04-25T07:08:51;8.80;;;2.03;;
64795;SDS011;51229;51.980;6.722;2023-04-25T07:11:17;8.55;;;2.20;;
64795;SDS011;51229;51.980;6.722;2023-04-25T07:13:43;10.25;;;2.30;;
64795;SDS011;51229;51.980;6.722;2023-04-25T07:16:09;7.45;;;2.20;;
64795;SDS011;51229;51.980;6.722;2023-04-25T07:18:35;8.25;;;2.25;;
64795;SDS011;51229;51.980;6.722;2023-04-25T07:21:02;6.30;;;2.17;;
64795;SDS011;51229;51.980;6.722;2023-04-25T07:23:29;7.07;;;2.25;;
64795;SDS011;51229;51.980;6.722;2023-04-25T07:25:57;6.13;;;2.30;;
64795;SDS011;51229;51.980;6.722;2023-04-25T07:28:25;7.53;;;2.17;;
64795;SDS011;51229;51.980;6.722;2023-04-25T07:30:50;7.93;;;2.25;;
64795;SDS011;51229;51.980;6.722;2023-04-25T07:33:16;5.50;;;2.15;;
64795;SDS011;51229;51.980;6.722;2023-04-25T07:35:42;7.00;;;2.13;;
64795;SDS011;51229;51.980;6.722;2023-04-25T07:38:08;8.38;;;2.28;;
64795;SDS011;51229;51.980;6.722;2023-04-25T07:40:35;6.78;;;2.53;;
64795;SDS011;51229;51.980;6.722;2023-04-25T07:43:05;10.45;;;2.10;;
64795;SDS011;51229;51.980;6.722;2023-04-25T07:45:53;8.73;;;2.10;;
64795;SDS011;51229;51.980;6.722;2023-04-25T07:48:20;8.55;;;1.80;;
64795;SDS011;51229;51.980;6.722;2023-04-25T07:50:47;8.25;;;2.00;;
64795;SDS011;51229;51.980;6.722;2023-04-25T07:53:14;9.05;;;2.47;;
64795;SDS011;51229;51.980;6.722;2023-04-25T07:55:46;6.90;;;1.90;;
64795;SDS011;51229;51.980;6.722;2023-04-25T07:58:16;7.93;;;2.42;;
64795;SDS011;51229;51.980;6.722;2023-04-25T08:00:47;7.47;;;1.92;;
64795;SDS011;51229;51.980;6.722;2023-04-25T08:03:36;6.68;;;1.98;;
64795;SDS011;51229;51.980;6.722;2023-04-25T08:06:05;8.77;;;2.10;;
64795;SDS011;51229;51.980;6.722;2023-04-25T08:08:36;8.95;;;2.20;;
64795;SDS011;51229;51.980;6.722;2023-04-25T08:11:02;5.90;;;1.60;;
64795;SDS011;51229;51.980;6.722;2023-04-25T08:13:28;8.07;;;2.10;;
64795;SDS011;51229;51.980;6.722;2023-04-25T08:15:54;6.85;;;1.80;;
64795;SDS011;51229;51.980;6.722;2023-04-25T08:18:19;8.95;;;2.00;;
64795;SDS011;51229;51.980;6.722;2023-04-25T08:20:47;6.65;;;1.52;;
64795;SDS011;51229;51.980;6.722;2023-04-25T08:23:14;10.77;;;1.85;;
64795;SDS011;51229;51.980;6.722;2023-04-25T08:25:50;6.25;;;1.55;;
64795;SDS011;51229;51.980;6.722;2023-04-25T08:28:19;8.02;;;1.77;;
64795;SDS011;51229;51.980;6.722;2023-04-25T08:30:46;10.10;;;2.22;;
64795;SDS011;51229;51.980;6.722;2023-04-25T08:33:14;8.30;;;1.60;;
64795;SDS011;51229;51.980;6.722;2023-04-25T08:35:58;6.18;;;1.55;;
64795;SDS011;51229;51.980;6.722;2023-04-25T08:38:25;6.78;;;1.67;;
64795;SDS011;51229;51.980;6.722;2023-04-25T08:40:52;6.18;;;1.85;;
64795;SDS011;51229;51.980;6.722;2023-04-25T08:43:20;4.82;;;1.30;;
64795;SDS011;51229;51.980;6.722;2023-04-25T08:45:46;7.63;;;1.95;;
64795;SDS011;51229;51.980;6.722;2023-04-25T08:48:32;7.80;;;1.80;;
64795;SDS011;51229;51.980;6.722;2023-04-25T08:51:00;9.23;;;2.05;;
64795;SDS011;51229;51.980;6.722;2023-04-25T08:53:30;7.63;;;1.65;;
64795;SDS011;51229;51.980;6.722;2023-04-25T08:55:59;5.13;;;1.50;;
64795;SDS011;51229;51.980;6.722;2023-04-25T08:58:33;4.60;;;1.55;;
64795;SDS011;51229;51.980;6.722;2023-04-25T09:00:59;6.47;;;1.67;;
64795;SDS011;51229;51.980;6.722;2023-04-25T09:03:27;7.38;;;1.50;;
64795;SDS011;51229;51.980;6.722;2023-04-25T09:05:53;6.53;;;1.58;;
64795;SDS011;51229;51.980;6.722;2023-04-25T09:08:20;7.68;;;1.70;;
64795;SDS011;51229;51.980;6.722;2023-04-25T09:10:46;4.30;;;1.30;;
64795;SDS011;51229;51.980;6.722;2023-04-25T09:13:13;4.68;;;1.83;;
64795;SDS011;51229;51.980;6.722;2023-04-25T09:15:58;5.03;;;0.90;;
64795;SDS011;51229;51.980;6.722;2023-04-25T09:18:53;5.90;;;1.10;;
64795;SDS011;51229;51.980;6.722;2023-04-25T09:21:21;4.82;;;1.33;;
64795;SDS011;51229;51.980;6.722;2023-04-25T09:23:48;5.75;;;1.42;;
64795;SDS011;51229;51.980;6.722;2023-04-25T09:26:17;3.95;;;1.15;;
64795;SDS011;51229;51.980;6.722;2023-04-25T09:28:44;2.83;;;1.10;;
64795;SDS011;51229;51.980;6.722;2023-04-25T09:31:23;4.25;;;1.05;;
64795;SDS011;51229;51.980;6.722;2023-04-25T09:33:50;6.32;;;1.20;;
64795;SDS011;51229;51.980;6.722;2023-04-25T09:36:27;1.77;;;0.70;;
64795;SDS011;51229;51.980;6.722;2023-04-25T09:39:14;6.07;;;1.17;;
64795;SDS011;51229;51.980;6.722;2023-04-25T09:41:41;3.58;;;1.17;;
64795;SDS011;51229;51.980;6.722;2023-04-25T09:44:08;2.10;;;1.00;;
64795;SDS011;51229;51.980;6.722;2023-04-25T09:46:35;5.57;;;1.10;;
64795;SDS011;51229;51.980;6.722;2023-04-25T09:49:06;3.50;;;1.20;;
64795;SDS011;51229;51.980;6.722;2023-04-25T09:51:39;3.10;;;1.10;;
64795;SDS011;51229;51.980;6.722;2023-04-25T09:54:06;4.72;;;1.10;;
64795;SDS011;51229;51.980;6.722;2023-04-25T09:56:39;4.13;;;1.00;;
64795;SDS011;51229;51.980;6.722;2023-04-25T09:59:06;2.25;;;1.10;;
64795;SDS011;51229;51.980;6.722;2023-04-25T10:01:35;4.68;;;1.27;;
64795;SDS011;51229;51.980;6.722;2023-04-25T10:04:10;2.25;;;1.08;;
64795;SDS011;51229;51.980;6.722;2023-04-25T10:07:10;4.63;;;1.25;;
64795;SDS011;51229;51.980;6.722;2023-04-25T10:09:37;5.15;;;1.00;;
64795;SDS011;51229;51.980;6.722;2023-04-25T10:12:05;4.55;;;1.20;;
64795;SDS011;51229;51.980;6.722;2023-04-25T10:14:32;4.63;;;1.30;;
64795;SDS011;51229;51.980;6.722;2023-04-25T10:16:58;4.53;;;1.10;;
64795;SDS011;51229;51.980;6.722;2023-04-25T10:19:25;5.65;;;1.00;;
64795;SDS011;51229;51.980;6.722;2023-04-25T10:24:35;6.47;;;1.40;;
64795;SDS011;51229;51.980;6.722;2023-04-25T10:27:02;6.38;;;1.10;;
64795;SDS011;51229;51.980;6.722;2023-04-25T10:29:28;3.72;;;1.00;;
64795;SDS011;51229;51.980;6.722;2023-04-25T10:31:53;2.92;;;1.15;;
64795;SDS011;51229;51.980;6.722;2023-04-25T10:34:19;1.63;;;0.80;;
64795;SDS011;51229;51.980;6.722;2023-04-25T10:36:51;2.75;;;1.20;;
64795;SDS011;51229;51.980;6.722;2023-04-25T10:39:24;1.23;;;0.60;;
64795;SDS011;51229;51.980;6.722;2023-04-25T10:41:53;1.80;;;0.77;;
64795;SDS011;51229;51.980;6.722;2023-04-25T10:44:22;1.33;;;0.80;;
64795;SDS011;51229;51.980;6.722;2023-04-25T10:46:52;3.25;;;0.80;;
64795;SDS011;51229;51.980;6.722;2023-04-25T10:49:28;3.10;;;0.73;;
64795;SDS011;51229;51.980;6.722;2023-04-25T10:54:55;2.50;;;0.80;;
64795;SDS011;51229;51.980;6.722;2023-04-25T11:03:21;4.95;;;1.10;;
64795;SDS011;51229;51.980;6.722;2023-04-25T11:08:00;2.58;;;0.77;;
64795;SDS011;51229;51.980;6.722;2023-04-25T11:10:27;2.10;;;1.00;;
64795;SDS011;51229;51.980;6.722;2023-04-25T11:12:53;3.78;;;1.20;;
64795;SDS011;51229;51.980;6.722;2023-04-25T11:15:19;6.80;;;1.00;;
64795;SDS011;51229;51.980;6.722;2023-04-25T11:17:45;3.60;;;1.42;;
64795;SDS011;51229;51.980;6.722;2023-04-25T11:20:11;6.20;;;1.58;;
64795;SDS011;51229;51.980;6.722;2023-04-25T11:22:39;8.15;;;1.38;;
64795;SDS011;51229;51.980;6.722;2023-04-25T11:25:08;5.22;;;1.45;;
64795;SDS011;51229;51.980;6.722;2023-04-25T11:27:38;4.05;;;1.17;;
64795;SDS011;51229;51.980;6.722;2023-04-25T11:30:15;4.78;;;1.70;;
64795;SDS011;51229;51.980;6.722;2023-04-25T11:32:42;3.40;;;1.30;;
64795;SDS011;51229;51.980;6.722;2023-04-25T11:35:10;4.82;;;1.48;;
64795;SDS011;51229;51.980;6.722;2023-04-25T11:37:38;6.28;;;2.33;;
64795;SDS011;51229;51.980;6.722;2023-04-25T11:40:08;4.22;;;1.85;;
64795;SDS011;51229;51.980;6.722;2023-04-25T11:42:53;5.85;;;2.42;;
64795;SDS011;51229;51.980;6.722;2023-04-25T11:45:18;10.10;;;2.42;;
64795;SDS011;51229;51.980;6.722;2023-04-25T11:47:44;10.52;;;4.03;;
64795;SDS011;51229;51.980;6.722;2023-04-25T11:50:13;10.98;;;4.20;;
64795;SDS011;51229;51.980;6.722;2023-04-25T11:52:40;9.77;;;3.58;;
64795;SDS011;51229;51.980;6.722;2023-04-25T11:55:18;13.65;;;6.07;;
64795;SDS011;51229;51.980;6.722;2023-04-25T11:57:45;4.75;;;1.50;;
64795;SDS011;51229;51.980;6.722;2023-04-25T12:00:17;5.03;;;1.52;;
64795;SDS011;51229;51.980;6.722;2023-04-25T12:02:47;6.55;;;1.60;;
64795;SDS011;51229;51.980;6.722;2023-04-25T12:05:17;6.25;;;2.13;;
64795;SDS011;51229;51.980;6.722;2023-04-25T12:07:44;7.22;;;2.33;;
64795;SDS011;51229;51.980;6.722;2023-04-25T12:10:12;10.63;;;4.28;;
64795;SDS011;51229;51.980;6.722;2023-04-25T12:12:42;7.68;;;1.70;;
64795;SDS011;51229;51.980;6.722;2023-04-25T12:15:11;8.10;;;2.65;;
64795;SDS011;51229;51.980;6.722;2023-04-25T12:17:40;5.68;;;1.63;;
64795;SDS011;51229;51.980;6.722;2023-04-25T12:20:07;7.80;;;2.38;;
64795;SDS011;51229;51.980;6.722;2023-04-25T12:22:34;5.05;;;1.48;;
64795;SDS011;51229;51.980;6.722;2023-04-25T12:25:01;12.40;;;1.60;;
64795;SDS011;51229;51.980;6.722;2023-04-25T12:27:30;4.32;;;1.40;;
64795;SDS011;51229;51.980;6.722;2023-04-25T12:29:56;7.55;;;1.60;;
64795;SDS011;51229;51.980;6.722;2023-04-25T12:32:23;7.65;;;2.75;;
64795;SDS011;51229;51.980;6.722;2023-04-25T12:34:49;8.05;;;3.10;;
64795;SDS011;51229;51.980;6.722;2023-04-25T12:37:15;4.63;;;1.83;;
64795;SDS011;51229;51.980;6.722;2023-04-25T12:39:40;6.45;;;2.47;;
64795;SDS011;51229;51.980;6.722;2023-04-25T12:42:06;5.55;;;1.77;;
64795;SDS011;51229;51.980;6.722;2023-04-25T12:44:38;5.43;;;1.42;;
64795;SDS011;51229;51.980;6.722;2023-04-25T12:47:04;8.35;;;1.95;;
64795;SDS011;51229;51.980;6.722;2023-04-25T12:49:30;8.50;;;3.40;;
64795;SDS011;51229;51.980;6.722;2023-04-25T12:51:56;6.38;;;1.67;;
64795;SDS011;51229;51.980;6.722;2023-04-25T12:54:22;10.60;;;4.72;;
64795;SDS011;51229;51.980;6.722;2023-04-25T12:56:48;7.53;;;2.67;;
64795;SDS011;51229;51.980;6.722;2023-04-25T12:59:15;5.05;;;1.50;;
64795;SDS011;51229;51.980;6.722;2023-04-25T13:01:40;6.47;;;1.63;;
64795;SDS011;51229;51.980;6.722;2023-04-25T13:04:06;4.65;;;1.70;;
64795;SDS011;51229;51.980;6.722;2023-04-25T13:06:32;7.22;;;1.77;;
64795;SDS011;51229;51.980;6.722;2023-04-25T13:08:57;5.38;;;1.88;;
64795;SDS011;51229;51.980;6.722;2023-04-25T13:11:23;5.13;;;1.92;;
64795;SDS011;51229;51.980;6.722;2023-04-25T13:13:49;8.07;;;2.25;;
64795;SDS011;51229;51.980;6.722;2023-04-25T13:16:14;6.07;;;1.23;;
64795;SDS011;51229;51.980;6.722;2023-04-25T13:18:40;4.22;;;1.67;;
64795;SDS011;51229;51.980;6.722;2023-04-25T13:21:06;4.38;;;1.45;;
64795;SDS011;51229;51.980;6.722;2023-04-25T13:23:32;4.45;;;1.38;;
64795;SDS011;51229;51.980;6.722;2023-04-25T13:25:58;5.13;;;1.40;;
64795;SDS011;51229;51.980;6.722;2023-04-25T13:28:26;3.83;;;1.38;;
64795;SDS011;51229;51.980;6.722;2023-04-25T13:30:52;5.80;;;1.40;;
64795;SDS011;51229;51.980;6.722;2023-04-25T13:33:19;5.43;;;1.35;;
64795;SDS011;51229;51.980;6.722;2023-04-25T13:35:45;3.75;;;1.33;;
64795;SDS011;51229;51.980;6.722;2023-04-25T13:38:18;5.38;;;1.48;;
64795;SDS011;51229;51.980;6.722;2023-04-25T13:40:47;4.47;;;1.83;;
64795;SDS011;51229;51.980;6.722;2023-04-25T13:43:13;5.88;;;1.80;;
64795;SDS011;51229;51.980;6.722;2023-04-25T13:45:39;4.40;;;1.67;;
64795;SDS011;51229;51.980;6.722;2023-04-25T13:48:05;8.05;;;1.45;;
64795;SDS011;51229;51.980;6.722;2023-04-25T13:50:31;6.72;;;2.08;;
64795;SDS011;51229;51.980;6.722;2023-04-25T13:52:57;4.65;;;1.55;;
64795;SDS011;51229;51.980;6.722;2023-04-25T13:55:23;3.97;;;1.50;;
64795;SDS011;51229;51.980;6.722;2023-04-25T13:57:48;4.60;;;1.50;;
64795;SDS011;51229;51.980;6.722;2023-04-25T14:00:14;4.68;;;1.40;;
64795;SDS011;51229;51.980;6.722;2023-04-25T14:02:40;3.58;;;1.20;;
64795;SDS011;51229;51.980;6.722;2023-04-25T14:05:06;4.57;;;1.60;;
64795;SDS011;51229;51.980;6.722;2023-04-25T14:07:33;5.25;;;1.40;;
64795;SDS011;51229;51.980;6.722;2023-04-25T14:10:00;3.38;;;1.42;;
64795;SDS011;51229;51.980;6.722;2023-04-25T14:12:25;4.85;;;1.77;;
64795;SDS011;51229;51.980;6.722;2023-04-25T14:14:51;5.13;;;1.30;;
64795;SDS011;51229;51.980;6.722;2023-04-25T14:17:18;4.70;;;1.33;;
64795;SDS011;51229;51.980;6.722;2023-04-25T14:19:44;4.75;;;1.27;;
64795;SDS011;51229;51.980;6.722;2023-04-25T14:22:12;4.55;;;1.30;;
64795;SDS011;51229;51.980;6.722;2023-04-25T14:24:38;4.85;;;1.48;;
64795;SDS011;51229;51.980;6.722;2023-04-25T14:27:04;3.90;;;1.05;;
64795;SDS011;51229;51.980;6.722;2023-04-25T14:29:31;3.78;;;1.10;;
64795;SDS011;51229;51.980;6.722;2023-04-25T14:31:56;3.75;;;1.10;;
64795;SDS011;51229;51.980;6.722;2023-04-25T14:34:23;3.83;;;1.73;;
64795;SDS011;51229;51.980;6.722;2023-04-25T14:36:52;3.17;;;1.33;;
64795;SDS011;51229;51.980;6.722;2023-04-25T14:39:18;6.35;;;1.65;;
64795;SDS011;51229;51.980;6.722;2023-04-25T14:41:44;4.80;;;1.00;;
64795;SDS011;51229;51.980;6.722;2023-04-25T14:44:10;5.50;;;1.52;;
64795;SDS011;51229;51.980;6.722;2023-04-25T14:46:36;4.95;;;1.35;;
64795;SDS011;51229;51.980;6.722;2023-04-25T14:49:02;5.82;;;1.30;;
64795;SDS011;51229;51.980;6.722;2023-04-25T14:51:28;5.93;;;1.48;;
64795;SDS011;51229;51.980;6.722;2023-04-25T14:53:54;5.40;;;1.25;;
64795;SDS011;51229;51.980;6.722;2023-04-25T14:56:20;4.32;;;1.00;;
64795;SDS011;51229;51.980;6.722;2023-04-25T14:58:46;5.35;;;1.40;;
64795;SDS011;51229;51.980;6.722;2023-04-25T15:01:11;3.85;;;1.10;;
64795;SDS011;51229;51.980;6.722;2023-04-25T15:03:38;2.63;;;1.10;;
64795;SDS011;51229;51.980;6.722;2023-04-25T15:06:05;5.75;;;1.45;;
64795;SDS011;51229;51.980;6.722;2023-04-25T15:08:31;3.00;;;1.02;;
64795;SDS011;51229;51.980;6.722;2023-04-25T15:10:57;5.70;;;1.35;;
64795;SDS011;51229;51.980;6.722;2023-04-25T15:13:23;4.38;;;1.35;;
64795;SDS011;51229;51.980;6.722;2023-04-25T15:15:50;3.95;;;1.35;;
64795;SDS011;51229;51.980;6.722;2023-04-25T15:18:17;3.33;;;1.10;;